createdAt,value
2019-01-28T00:00:00.289Z,2.73
2019-01-28T00:02:28.995Z,2.69
2019-01-28T00:04:57.997Z,2.75
2019-01-28T00:07:29.641Z,2.85
2019-01-28T00:10:01.324Z,2.83
2019-01-28T00:12:29.916Z,2.84
2019-01-28T00:14:58.639Z,2.86
2019-01-28T00:17:27.506Z,2.92
2019-01-28T00:19:56.087Z,2.97
2019-01-28T00:22:24.650Z,3.00
2019-01-28T00:24:55.975Z,3.00
2019-01-28T00:27:24.522Z,3.01
2019-01-28T00:29:56.183Z,3.03
2019-01-28T00:32:24.733Z,3.00
2019-01-28T00:34:53.648Z,2.98
2019-01-28T00:37:22.224Z,3.00
2019-01-28T00:39:54.006Z,3.00
2019-01-28T00:42:23.029Z,3.05
2019-01-28T00:44:54.624Z,3.13
2019-01-28T00:47:26.502Z,3.06
2019-01-28T00:49:55.229Z,3.05
2019-01-28T00:52:27.034Z,3.07
2019-01-28T00:54:56.260Z,3.11
2019-01-28T00:57:24.879Z,3.04
2019-01-28T00:59:53.489Z,3.13
2019-01-28T01:02:22.100Z,3.13
2019-01-28T01:04:52.585Z,3.18
2019-01-28T01:07:22.965Z,3.17
2019-01-28T01:09:52.695Z,3.16
2019-01-28T01:12:21.687Z,3.14
2019-01-28T01:14:50.401Z,3.14
2019-01-28T01:17:18.934Z,3.14
2019-01-28T01:19:50.494Z,3.13
2019-01-28T01:22:19.077Z,3.14
2019-01-28T01:24:47.623Z,3.10
2019-01-28T01:27:16.218Z,3.16
2019-01-28T01:29:44.757Z,3.15
2019-01-28T01:32:13.347Z,3.18
2019-01-28T01:34:42.013Z,3.19
2019-01-28T01:37:11.024Z,3.07
2019-01-28T01:39:39.616Z,3.07
2019-01-28T01:42:08.358Z,3.12
2019-01-28T01:44:37.358Z,3.16
2019-01-28T01:47:05.992Z,3.16
2019-01-28T01:49:34.574Z,3.11
2019-01-28T01:52:03.229Z,3.15
2019-01-28T01:54:32.255Z,3.15
2019-01-28T01:57:00.865Z,3.05
2019-01-28T01:59:29.887Z,3.05
2019-01-28T02:01:58.607Z,3.04
2019-01-28T02:04:27.217Z,3.07
2019-01-28T02:06:55.823Z,3.15
2019-01-28T02:09:24.411Z,3.15
2019-01-28T02:11:54.492Z,3.12
2019-01-28T02:14:24.673Z,3.19
2019-01-28T02:16:56.252Z,3.15
2019-01-28T02:19:25.276Z,3.09
2019-01-28T02:21:56.954Z,3.08
2019-01-28T02:24:25.627Z,3.17
2019-01-28T02:26:54.225Z,3.17
2019-01-28T02:29:24.292Z,3.29
2019-01-28T02:31:54.393Z,3.31
2019-01-28T02:34:25.689Z,3.31
2019-01-28T02:36:54.275Z,3.24
2019-01-28T02:39:24.339Z,3.31
2019-01-28T02:41:54.546Z,3.29
2019-01-28T02:44:26.381Z,3.27
2019-01-28T02:46:55.109Z,3.27
2019-01-28T02:49:25.506Z,3.36
2019-01-28T02:51:54.129Z,3.38
2019-01-28T02:54:25.391Z,3.48
2019-01-28T02:56:54.014Z,3.48
2019-01-28T02:59:26.059Z,3.48
2019-01-28T03:01:59.144Z,3.57
2019-01-28T03:04:30.602Z,3.57
2019-01-28T03:06:59.183Z,3.57
2019-01-28T03:09:30.448Z,3.65
2019-01-28T03:12:01.885Z,3.65
2019-01-28T03:14:30.432Z,3.53
2019-01-28T03:17:10.760Z,3.61
2019-01-28T03:19:42.275Z,3.70
2019-01-28T03:22:13.920Z,3.70
2019-01-28T03:24:45.293Z,3.65
2019-01-28T03:27:16.768Z,3.56
2019-01-28T03:29:45.491Z,3.60
2019-01-28T03:32:14.524Z,3.60
2019-01-28T03:34:43.136Z,3.52
2019-01-28T03:37:17.603Z,3.47
2019-01-28T03:39:49.343Z,3.47
2019-01-28T03:42:20.981Z,3.51
2019-01-28T03:44:52.357Z,3.51
2019-01-28T03:47:20.963Z,3.43
2019-01-28T03:49:49.917Z,3.42
2019-01-28T03:52:21.871Z,3.42
2019-01-28T03:54:50.578Z,3.42
2019-01-28T03:57:22.064Z,3.22
2019-01-28T03:59:50.787Z,3.22
2019-01-28T04:02:19.995Z,3.21
2019-01-28T04:04:49.009Z,3.24
2019-01-28T04:07:20.600Z,3.08
2019-01-28T04:09:51.931Z,3.08
2019-01-28T04:12:23.445Z,3.08
2019-01-28T04:14:52.370Z,3.14
2019-01-28T04:17:20.962Z,3.20
2019-01-28T04:19:49.541Z,3.14
2019-01-28T04:22:20.897Z,3.08
2019-01-28T04:24:52.680Z,3.10
2019-01-28T04:27:24.010Z,3.05
2019-01-28T04:29:55.577Z,3.16
2019-01-28T04:32:24.112Z,3.23
2019-01-28T04:34:52.794Z,3.21
2019-01-28T04:37:21.377Z,3.25
2019-01-28T04:39:49.970Z,3.14
2019-01-28T04:42:18.622Z,3.05
2019-01-28T04:44:49.994Z,2.98
2019-01-28T04:47:18.703Z,2.97
2019-01-28T04:49:47.312Z,2.98
2019-01-28T04:52:18.686Z,2.95
2019-01-28T04:54:50.574Z,2.90
2019-01-28T04:57:22.142Z,2.84
2019-01-28T04:59:53.432Z,2.92
2019-01-28T05:02:22.441Z,2.99
2019-01-28T05:04:53.715Z,3.01
2019-01-28T05:07:22.263Z,2.82
2019-01-28T05:09:53.704Z,2.82
2019-01-28T05:12:22.311Z,2.79
2019-01-28T05:14:50.917Z,2.84
2019-01-28T05:17:19.545Z,2.81
2019-01-28T05:19:48.240Z,2.79
2019-01-28T05:22:19.714Z,2.81
2019-01-28T05:24:48.268Z,2.69
2019-01-28T05:27:19.776Z,2.76
2019-01-28T05:29:48.410Z,2.73
2019-01-28T05:32:20.091Z,2.74
2019-01-28T05:34:48.680Z,2.74
2019-01-28T05:37:18.222Z,2.66
2019-01-28T05:39:49.776Z,2.64
2019-01-28T05:42:21.392Z,2.62
2019-01-28T05:44:52.969Z,2.63
2019-01-28T05:47:21.515Z,2.77
2019-01-28T05:49:52.782Z,2.70
2019-01-28T05:52:21.329Z,2.73
2019-01-28T05:54:52.976Z,2.49
2019-01-28T05:57:24.572Z,2.53
2019-01-28T05:59:53.647Z,2.54
2019-01-28T06:02:22.186Z,2.41
2019-01-28T06:04:51.396Z,2.33
2019-01-28T06:07:19.971Z,1.86
2019-01-28T06:09:51.355Z,1.86
2019-01-28T06:12:23.056Z,1.86
2019-01-28T06:15:18.967Z,1.93
2019-01-28T06:17:56.864Z,1.83
2019-01-28T06:20:29.143Z,1.69
2019-01-28T06:22:57.700Z,1.48
2019-01-28T06:25:29.274Z,1.38
2019-01-28T06:27:58.268Z,1.31
2019-01-28T06:30:32.044Z,1.26
2019-01-28T06:33:03.596Z,1.31
2019-01-28T06:35:32.254Z,1.22
2019-01-28T06:38:00.882Z,1.10
2019-01-28T06:40:34.532Z,1.06
2019-01-28T06:43:03.525Z,1.11
2019-01-28T06:45:49.614Z,0.98
2019-01-28T06:48:18.330Z,0.91
2019-01-28T06:50:47.034Z,0.89
2019-01-28T06:53:22.850Z,0.83
2019-01-28T06:55:51.480Z,0.75
2019-01-28T06:58:20.457Z,0.69
2019-01-28T07:00:49.438Z,0.62
2019-01-28T07:03:18.075Z,0.56
2019-01-28T07:05:46.657Z,0.65
2019-01-28T07:08:18.517Z,0.63
2019-01-28T07:10:50.151Z,0.58
2019-01-28T07:13:18.758Z,0.49
2019-01-28T07:15:47.347Z,0.45
2019-01-28T07:18:15.939Z,0.45
2019-01-28T07:20:44.487Z,0.39
2019-01-28T07:23:13.085Z,0.43
2019-01-28T07:25:44.781Z,0.45
2019-01-28T07:28:13.381Z,0.49
2019-01-28T07:30:42.020Z,0.54
2019-01-28T07:33:11.151Z,0.53
2019-01-28T07:35:41.339Z,0.54
2019-01-28T07:38:12.685Z,0.60
2019-01-28T07:40:44.266Z,0.56
2019-01-28T07:43:12.874Z,0.53
2019-01-28T07:45:45.340Z,0.55
2019-01-28T07:48:13.286Z,0.58
2019-01-28T07:50:44.870Z,0.57
2019-01-28T07:53:16.803Z,0.60
2019-01-28T07:55:45.359Z,0.71
2019-01-28T07:58:16.610Z,0.69
2019-01-28T08:00:45.178Z,0.69
2019-01-28T08:03:14.472Z,0.81
2019-01-28T08:05:43.097Z,0.83
2019-01-28T08:08:17.821Z,0.85
2019-01-28T08:10:49.224Z,0.91
2019-01-28T08:13:20.820Z,1.00
2019-01-28T08:15:49.622Z,1.08
2019-01-28T08:18:18.190Z,1.16
2019-01-28T08:20:47.194Z,1.21
2019-01-28T08:23:15.780Z,1.22
2019-01-28T08:25:47.880Z,1.39
2019-01-28T08:28:19.654Z,1.46
2019-01-28T08:30:48.701Z,1.52
2019-01-28T08:33:17.247Z,1.56
2019-01-28T08:35:48.888Z,1.54
2019-01-28T08:38:17.508Z,1.58
2019-01-28T08:40:46.218Z,1.63
2019-01-28T08:43:17.907Z,1.72
2019-01-28T08:45:46.768Z,1.70
2019-01-28T08:48:18.404Z,1.78
2019-01-28T08:50:46.298Z,1.86
2019-01-28T08:53:17.576Z,1.90
2019-01-28T08:55:46.289Z,2.00
2019-01-28T08:58:17.794Z,2.05
2019-01-28T09:00:49.549Z,2.07
2019-01-28T09:03:18.175Z,2.08
2019-01-28T09:05:46.759Z,2.18
2019-01-28T09:08:15.382Z,2.16
2019-01-28T09:10:44.281Z,2.24
2019-01-28T09:13:13.237Z,2.24
2019-01-28T09:15:45.002Z,2.25
2019-01-28T09:18:13.727Z,2.31
2019-01-28T09:20:43.120Z,2.39
2019-01-28T09:23:14.817Z,2.44
2019-01-28T09:25:43.497Z,2.47
2019-01-28T09:28:15.184Z,2.48
2019-01-28T09:30:43.881Z,2.50
2019-01-28T09:33:12.605Z,2.56
2019-01-28T09:35:44.188Z,2.71
2019-01-28T09:38:13.082Z,2.71
2019-01-28T09:40:44.890Z,2.79
2019-01-28T09:43:16.265Z,2.85
2019-01-28T09:45:44.842Z,2.88
2019-01-28T09:48:14.838Z,2.96
2019-01-28T09:50:43.870Z,2.99
2019-01-28T09:53:15.654Z,3.01
2019-01-28T09:55:47.332Z,3.09
2019-01-28T09:58:18.540Z,3.12
2019-01-28T10:00:48.526Z,3.23
2019-01-28T10:03:20.058Z,3.33
2019-01-28T10:05:48.719Z,3.39
2019-01-28T10:08:20.291Z,3.46
2019-01-28T10:10:51.584Z,3.52
2019-01-28T10:13:23.266Z,3.51
2019-01-28T10:15:51.875Z,3.60
2019-01-28T10:18:23.773Z,3.67
2019-01-28T10:20:52.577Z,3.74
2019-01-28T10:23:21.188Z,3.79
2019-01-28T10:25:57.605Z,3.79
2019-01-28T10:28:22.908Z,3.90
2019-01-28T10:30:54.384Z,4.00
2019-01-28T10:33:25.964Z,4.13
2019-01-28T10:35:54.649Z,4.25
2019-01-28T10:38:23.317Z,4.25
2019-01-28T10:40:51.900Z,4.24
2019-01-28T10:43:20.859Z,4.28
2019-01-28T10:45:52.390Z,4.28
2019-01-28T10:48:20.953Z,4.28
2019-01-28T10:50:52.633Z,4.20
2019-01-28T10:53:21.700Z,4.24
2019-01-28T10:55:50.319Z,4.19
2019-01-28T10:58:19.016Z,4.16
2019-01-28T11:00:50.809Z,4.16
2019-01-28T11:03:20.236Z,4.13
2019-01-28T11:05:49.354Z,4.21
2019-01-28T11:08:17.968Z,4.21
2019-01-28T11:10:49.478Z,4.05
2019-01-28T11:13:20.835Z,4.05
2019-01-28T11:15:52.633Z,3.98
2019-01-28T11:18:24.185Z,3.91
2019-01-28T11:20:53.351Z,4.17
2019-01-28T11:23:25.210Z,4.17
2019-01-28T11:25:53.820Z,4.31
2019-01-28T11:28:22.555Z,4.53
2019-01-28T11:30:55.404Z,4.55
2019-01-28T11:33:24.206Z,4.55
2019-01-28T11:35:53.215Z,4.55
2019-01-28T11:38:22.044Z,4.55
2019-01-28T11:40:53.651Z,4.49
2019-01-28T11:43:22.333Z,4.60
2019-01-28T11:45:59.351Z,4.43
2019-01-28T11:48:28.130Z,4.47
2019-01-28T11:50:59.917Z,4.47
2019-01-28T11:53:31.605Z,4.52
2019-01-28T11:56:00.181Z,4.64
2019-01-28T11:58:28.787Z,4.67
2019-01-28T12:01:06.685Z,4.67
2019-01-28T12:03:35.252Z,4.66
2019-01-28T12:06:04.127Z,4.58
2019-01-28T12:08:35.924Z,4.56
2019-01-28T12:11:05.128Z,4.65
2019-01-28T12:13:33.815Z,4.69
2019-01-28T12:16:02.359Z,4.81
2019-01-28T12:18:31.034Z,4.81
2019-01-28T12:20:59.649Z,4.97
2019-01-28T12:23:34.593Z,4.90
2019-01-28T12:26:04.699Z,4.95
2019-01-28T12:28:36.222Z,4.95
2019-01-28T12:31:07.569Z,4.90
2019-01-28T12:33:36.212Z,4.90
2019-01-28T12:36:05.128Z,5.09
2019-01-28T12:38:33.678Z,5.09
2019-01-28T12:41:05.264Z,5.19
2019-01-28T12:43:33.845Z,5.27
2019-01-28T12:46:05.163Z,5.43
2019-01-28T12:48:34.077Z,5.49
2019-01-28T12:51:02.666Z,5.49
2019-01-28T12:53:31.268Z,5.67
2019-01-28T12:55:59.845Z,5.57
2019-01-28T12:58:28.487Z,5.27
2019-01-28T13:01:01.500Z,5.27
2019-01-28T13:03:30.612Z,5.43
2019-01-28T13:06:00.564Z,5.45
2019-01-28T13:08:33.579Z,5.49
2019-01-28T13:11:04.946Z,5.42
2019-01-28T13:13:40.992Z,5.56
2019-01-28T13:16:12.249Z,5.73
2019-01-28T13:18:42.479Z,5.79
2019-01-28T13:21:14.176Z,5.54
2019-01-28T13:23:45.756Z,5.54
2019-01-28T13:26:17.450Z,5.24
2019-01-28T13:28:45.999Z,4.84
2019-01-28T13:31:17.222Z,4.84
2019-01-28T13:33:48.999Z,4.79
2019-01-28T13:36:17.545Z,4.58
2019-01-28T13:38:46.138Z,4.59
2019-01-28T13:41:17.695Z,4.59
2019-01-28T13:43:46.307Z,4.58
2019-01-28T13:46:14.896Z,4.51
2019-01-28T13:48:46.286Z,4.49
2019-01-28T13:51:14.897Z,4.53
2019-01-28T13:53:46.477Z,4.62
2019-01-28T13:56:15.497Z,4.77
2019-01-28T13:58:47.261Z,4.90
2019-01-28T14:01:18.961Z,4.82
2019-01-28T14:03:48.539Z,4.85
2019-01-28T14:06:20.069Z,4.77
2019-01-28T14:08:51.377Z,4.61
2019-01-28T14:11:22.942Z,4.62
2019-01-28T14:13:51.965Z,4.56
2019-01-28T14:16:20.529Z,4.57
2019-01-28T14:18:52.367Z,4.53
2019-01-28T14:21:20.962Z,4.53
2019-01-28T14:23:49.681Z,4.41
2019-01-28T14:26:18.221Z,4.41
2019-01-28T14:28:49.881Z,4.35
2019-01-28T14:31:18.486Z,4.23
2019-01-28T14:33:47.078Z,4.23
2019-01-28T14:36:15.731Z,4.23
2019-01-28T14:38:44.417Z,4.14
2019-01-28T14:41:13.144Z,4.14
2019-01-28T14:43:44.665Z,4.12
2019-01-28T14:46:16.169Z,4.12
2019-01-28T14:48:49.339Z,4.03
2019-01-28T14:51:15.376Z,4.04
2019-01-28T14:53:43.958Z,4.04
2019-01-28T14:56:15.719Z,4.03
2019-01-28T14:58:44.423Z,3.97
2019-01-28T15:01:13.254Z,3.95
2019-01-28T15:03:42.883Z,3.84
2019-01-28T15:06:17.448Z,3.84
2019-01-28T15:08:46.295Z,3.71
2019-01-28T15:11:14.838Z,3.71
2019-01-28T15:13:46.556Z,3.76
2019-01-28T15:16:15.116Z,3.77
2019-01-28T15:18:43.657Z,3.76
2019-01-28T15:21:15.186Z,3.63
2019-01-28T15:23:43.770Z,3.71
2019-01-28T15:26:15.150Z,3.71
2019-01-28T15:28:43.736Z,3.60
2019-01-28T15:31:12.376Z,3.61
2019-01-28T15:33:43.629Z,3.60
2019-01-28T15:36:12.548Z,3.63
2019-01-28T15:38:43.848Z,3.59
2019-01-28T15:41:15.258Z,3.46
2019-01-28T15:43:44.171Z,3.42
2019-01-28T15:46:12.822Z,3.35
2019-01-28T15:48:41.955Z,3.29
2019-01-28T15:51:10.524Z,3.23
2019-01-28T15:53:39.503Z,3.23
2019-01-28T15:56:08.210Z,3.23
2019-01-28T15:58:36.813Z,3.31
2019-01-28T16:01:05.699Z,3.31
2019-01-28T16:03:34.278Z,3.31
2019-01-28T16:06:02.864Z,3.31
2019-01-28T16:08:31.561Z,3.31
2019-01-28T16:11:02.933Z,3.35
2019-01-28T16:13:31.531Z,3.39
2019-01-28T16:16:03.350Z,3.65
2019-01-28T16:18:34.955Z,3.65
2019-01-28T16:21:04.038Z,3.53
2019-01-28T16:23:32.914Z,3.55
2019-01-28T16:26:01.515Z,3.55
2019-01-28T16:28:33.585Z,3.42
2019-01-28T16:31:04.968Z,3.20
2019-01-28T16:33:33.519Z,3.20
2019-01-28T16:36:02.123Z,3.05
2019-01-28T16:38:33.642Z,3.05
2019-01-28T16:41:02.231Z,2.96
2019-01-28T16:43:30.777Z,2.98
2019-01-28T16:46:02.377Z,3.01
2019-01-28T16:48:34.068Z,2.94
2019-01-28T16:51:02.603Z,2.96
2019-01-28T16:53:31.204Z,3.09
2019-01-28T16:56:02.426Z,2.97
2019-01-28T16:58:31.106Z,3.06
2019-01-28T17:00:59.682Z,3.05
2019-01-28T17:03:30.984Z,3.03
2019-01-28T17:06:00.026Z,3.17
2019-01-28T17:08:28.633Z,3.15
2019-01-28T17:10:57.177Z,3.14
2019-01-28T17:13:25.726Z,3.08
2019-01-28T17:15:57.539Z,2.98
2019-01-28T17:18:29.048Z,2.96
2019-01-28T17:21:00.351Z,3.02
2019-01-28T17:23:29.103Z,2.93
2019-01-28T17:25:57.655Z,2.86
2019-01-28T17:28:26.216Z,2.86
2019-01-28T17:30:54.767Z,2.84
2019-01-28T17:33:23.377Z,2.66
2019-01-28T17:35:51.991Z,2.66
2019-01-28T17:38:20.535Z,2.66
2019-01-28T17:40:49.494Z,2.70
2019-01-28T17:43:20.805Z,2.59
2019-01-28T17:45:49.392Z,2.66
2019-01-28T17:48:17.928Z,2.66
2019-01-28T17:50:46.679Z,2.62
2019-01-28T17:53:17.987Z,2.61
2019-01-28T17:55:46.587Z,2.49
2019-01-28T17:58:15.239Z,2.36
2019-01-28T18:00:49.427Z,2.36
2019-01-28T18:03:20.799Z,2.38
2019-01-28T18:05:49.413Z,2.27
2019-01-28T18:08:20.722Z,2.39
2019-01-28T18:10:49.372Z,2.33
2019-01-28T18:13:17.923Z,2.22
2019-01-28T18:15:46.475Z,2.21
2019-01-28T18:18:15.129Z,2.37
2019-01-28T18:20:52.057Z,2.35
2019-01-28T18:23:18.776Z,2.30
2019-01-28T18:25:47.410Z,2.27
2019-01-28T18:28:16.088Z,2.24
2019-01-28T18:30:49.655Z,2.21
2019-01-28T18:33:18.368Z,2.21
2019-01-28T18:35:47.438Z,2.13
2019-01-28T18:38:16.103Z,2.08
2019-01-28T18:40:44.712Z,2.07
2019-01-28T18:43:13.293Z,2.07
2019-01-28T18:45:41.851Z,1.98
2019-01-28T18:48:13.513Z,2.03
2019-01-28T18:50:42.219Z,1.88
2019-01-28T18:53:13.910Z,1.84
2019-01-28T18:55:42.537Z,1.86
2019-01-28T18:58:14.317Z,1.97
2019-01-28T19:00:42.939Z,1.91
2019-01-28T19:03:14.725Z,1.96
2019-01-28T19:05:53.979Z,1.93
2019-01-28T19:08:30.591Z,2.01
2019-01-28T19:11:12.726Z,2.16
2019-01-28T19:13:43.081Z,2.25
2019-01-28T19:16:25.015Z,2.19
2019-01-28T19:18:55.614Z,2.15
2019-01-28T19:21:25.790Z,2.26
2019-01-28T19:23:54.375Z,2.11
2019-01-28T19:26:24.000Z,2.33
2019-01-28T19:28:53.259Z,2.24
2019-01-28T19:31:24.612Z,2.16
2019-01-28T19:33:53.220Z,2.13
2019-01-28T19:36:24.798Z,2.14
2019-01-28T19:38:53.409Z,2.28
2019-01-28T19:41:22.018Z,2.48
2019-01-28T19:43:50.641Z,2.27
2019-01-28T19:46:19.667Z,2.33
2019-01-28T19:48:50.962Z,2.22
2019-01-28T19:51:19.905Z,2.40
2019-01-28T19:53:48.899Z,2.30
2019-01-28T19:56:17.510Z,2.27
2019-01-28T19:58:46.146Z,2.18
2019-01-28T20:01:14.742Z,2.19
2019-01-28T20:03:43.660Z,2.33
2019-01-28T20:06:12.261Z,2.40
2019-01-28T20:08:42.362Z,2.33
2019-01-28T20:11:14.048Z,2.26
2019-01-28T20:13:42.657Z,2.31
2019-01-28T20:16:11.379Z,2.16
2019-01-28T20:18:39.993Z,2.17
2019-01-28T20:21:09.749Z,2.13
2019-01-28T20:23:38.317Z,1.98
2019-01-28T20:26:06.998Z,1.94
2019-01-28T20:28:35.814Z,1.93
2019-01-28T20:31:04.659Z,1.92
2019-01-28T20:33:33.409Z,1.98
2019-01-28T20:36:02.037Z,1.76
2019-01-28T20:38:33.520Z,1.64
2019-01-28T20:41:02.505Z,1.63
2019-01-28T20:43:31.178Z,1.80
2019-01-28T20:45:59.998Z,1.94
2019-01-28T20:48:28.925Z,2.07
2019-01-28T20:51:00.739Z,2.07
2019-01-28T20:53:29.401Z,1.93
2019-01-28T20:55:57.995Z,1.96
2019-01-28T20:58:26.619Z,2.12
2019-01-28T21:00:55.267Z,2.23
2019-01-28T21:03:23.857Z,2.00
2019-01-28T21:05:52.696Z,2.21
2019-01-28T21:08:21.320Z,2.24
2019-01-28T21:10:52.751Z,2.29
2019-01-28T21:13:24.301Z,2.31
2019-01-28T21:15:53.184Z,2.27
2019-01-28T21:18:21.782Z,2.30
2019-01-28T21:20:50.342Z,2.12
2019-01-28T21:23:18.974Z,2.12
2019-01-28T21:25:47.559Z,2.21
2019-01-28T21:28:19.369Z,2.17
2019-01-28T21:30:47.980Z,2.30
2019-01-28T21:33:16.606Z,2.32
2019-01-28T21:35:55.451Z,2.31
2019-01-28T21:38:25.695Z,2.12
2019-01-28T21:40:54.309Z,2.24
2019-01-28T21:43:22.932Z,2.03
2019-01-28T21:45:54.617Z,2.02
2019-01-28T21:48:23.173Z,1.93
2019-01-28T21:50:55.016Z,1.93
2019-01-28T21:53:26.408Z,1.88
2019-01-28T21:55:54.974Z,1.98
2019-01-28T21:58:23.612Z,1.94
2019-01-28T22:00:52.223Z,2.06
2019-01-28T22:03:21.153Z,1.89
2019-01-28T22:05:52.489Z,1.84
2019-01-28T22:08:23.827Z,1.83
2019-01-28T22:10:52.494Z,1.91
2019-01-28T22:13:21.141Z,1.98
2019-01-28T22:15:49.757Z,1.93
2019-01-28T22:18:21.336Z,1.88
2019-01-28T22:20:49.948Z,1.88
2019-01-28T22:23:18.559Z,1.98
2019-01-28T22:25:47.169Z,2.11
2019-01-28T22:28:18.543Z,2.12
2019-01-28T22:30:47.142Z,2.00
2019-01-28T22:33:15.830Z,2.00
2019-01-28T22:35:44.481Z,2.03
2019-01-28T22:38:13.088Z,1.91
2019-01-28T22:40:44.786Z,2.03
2019-01-28T22:43:16.570Z,1.95
2019-01-28T22:45:45.191Z,2.08
2019-01-28T22:48:14.213Z,2.08
2019-01-28T22:50:45.788Z,2.04
2019-01-28T22:53:17.393Z,1.94
2019-01-28T22:55:45.984Z,2.15
2019-01-28T22:58:14.566Z,2.05
2019-01-28T23:00:47.703Z,1.99
2019-01-28T23:03:21.031Z,2.02
2019-01-28T23:05:49.842Z,2.08
2019-01-28T23:08:21.312Z,2.12
2019-01-28T23:10:50.036Z,2.15
2019-01-28T23:13:18.951Z,2.18
2019-01-28T23:15:47.563Z,2.10
2019-01-28T23:18:16.215Z,2.03
2019-01-28T23:20:44.884Z,2.05
2019-01-28T23:23:13.900Z,2.18
2019-01-28T23:25:42.512Z,1.99
2019-01-28T23:28:13.943Z,2.16
2019-01-28T23:30:42.559Z,2.15
2019-01-28T23:33:14.115Z,2.05
2019-01-28T23:35:43.059Z,1.94
2019-01-28T23:38:14.855Z,2.07
2019-01-28T23:40:46.638Z,1.98
2019-01-28T23:43:18.119Z,1.84
2019-01-28T23:45:46.749Z,1.88
2019-01-28T23:48:15.418Z,1.98
2019-01-28T23:50:44.065Z,1.98
2019-01-28T23:53:12.623Z,1.77
2019-01-28T23:55:41.282Z,1.92
2019-01-28T23:58:11.518Z,1.92
